Time;durP1;ratioP1;P1;durP2;ratioP2;P2;SDS_P1;SDS_P2;PMS_P1;PMS_P2;Temp;Humidity;BMP_temperature;BMP_pressure;BME280_temperature;BME280_humidity;BME280_pressure;Samples;Min_cycle;Max_cycle;Signal;HPM_P1;HPM_P2
2023/06/27 00:00:19;;;;;;;3.78;1.88;;;;;;;;;;5062051;28;20447;-90
2023/06/27 00:02:47;;;;;;;3.00;1.70;;;;;;;;;;5053456;28;20021;-90
2023/06/27 00:05:13;;;;;;;5.90;1.67;;;;;;;;;;5060514;28;20498;-90
2023/06/27 00:07:40;;;;;;;7.35;2.25;;;;;;;;;;5059512;28;20037;-90
2023/06/27 00:10:06;;;;;;;9.23;1.83;;;;;;;;;;5059011;28;20398;-90
2023/06/27 00:12:31;;;;;;;3.08;1.85;;;;;;;;;;5053211;28;20037;-90
2023/06/27 00:14:57;;;;;;;6.47;1.67;;;;;;;;;;5060397;28;20024;-90
2023/06/27 00:17:23;;;;;;;5.53;2.05;;;;;;;;;;5051454;28;20120;-90
2023/06/27 00:19:49;;;;;;;4.07;1.92;;;;;;;;;;5051991;28;20108;-90
2023/06/27 00:22:15;;;;;;;5.20;1.85;;;;;;;;;;5051334;28;20483;-90
2023/06/27 00:24:40;;;;;;;4.53;1.80;;;;;;;;;;5059832;28;20121;-90
2023/06/27 00:27:06;;;;;;;4.78;2.10;;;;;;;;;;5051434;28;20025;-90
2023/06/27 00:29:32;;;;;;;4.18;1.73;;;;;;;;;;5052046;28;20028;-90
2023/06/27 00:31:58;;;;;;;5.13;2.00;;;;;;;;;;5053723;28;20491;-91
2023/06/27 00:34:23;;;;;;;3.50;1.75;;;;;;;;;;5051964;28;20053;-91
2023/06/27 00:36:52;;;;;;;2.03;1.55;;;;;;;;;;5051934;28;20036;-91
2023/06/27 00:39:17;;;;;;;4.70;1.70;;;;;;;;;;5051439;28;20115;-91
2023/06/27 00:41:42;;;;;;;4.60;1.98;;;;;;;;;;5052765;28;20060;-91
2023/06/27 00:44:08;;;;;;;2.97;1.70;;;;;;;;;;5052881;28;20108;-91
2023/06/27 00:46:38;;;;;;;11.80;2.15;;;;;;;;;;5053098;28;20047;-91
2023/06/27 00:49:10;;;;;;;2.70;1.48;;;;;;;;;;5052268;28;20138;-91
2023/06/27 00:51:38;;;;;;;4.82;1.95;;;;;;;;;;5031915;28;20511;-91
2023/06/27 00:54:03;;;;;;;3.90;1.95;;;;;;;;;;5032191;28;20504;-91
2023/06/27 00:56:29;;;;;;;3.00;1.63;;;;;;;;;;5043682;28;20103;-91
2023/06/27 00:58:59;;;;;;;3.70;1.60;;;;;;;;;;5052013;28;20507;-91
2023/06/27 01:01:25;;;;;;;3.72;1.80;;;;;;;;;;5053213;28;20067;-91
2023/06/27 01:03:50;;;;;;;3.90;1.80;;;;;;;;;;5051793;28;20033;-91
2023/06/27 01:06:27;;;;;;;4.28;1.83;;;;;;;;;;5051714;28;20031;-90
2023/06/27 01:09:01;;;;;;;3.38;1.48;;;;;;;;;;5052364;28;20111;-91
2023/06/27 01:11:35;;;;;;;5.22;1.90;;;;;;;;;;5051449;28;20087;-91
2023/06/27 01:14:03;;;;;;;2.97;1.60;;;;;;;;;;5055730;28;20033;-91
2023/06/27 01:16:30;;;;;;;2.88;1.45;;;;;;;;;;5055459;28;20029;-91
2023/06/27 01:18:57;;;;;;;2.22;1.40;;;;;;;;;;5055240;28;20044;-91
2023/06/27 01:21:28;;;;;;;4.65;2.03;;;;;;;;;;5055621;28;22116;-91
2023/06/27 01:23:55;;;;;;;7.05;1.95;;;;;;;;;;5057761;28;20036;-91
2023/06/27 01:26:21;;;;;;;4.30;1.83;;;;;;;;;;5055772;28;20052;-91
2023/06/27 01:28:47;;;;;;;9.95;1.70;;;;;;;;;;5054430;28;20033;-90
2023/06/27 01:31:39;;;;;;;4.18;1.77;;;;;;;;;;5055369;28;20420;-91
2023/06/27 01:34:21;;;;;;;4.05;1.73;;;;;;;;;;5068595;28;20035;-91
2023/06/27 01:36:57;;;;;;;5.25;1.85;;;;;;;;;;5070292;28;20483;-91
2023/06/27 01:39:28;;;;;;;4.30;1.70;;;;;;;;;;5055324;28;20408;-91
2023/06/27 01:42:03;;;;;;;4.07;1.88;;;;;;;;;;5055560;28;20379;-91
2023/06/27 01:44:30;;;;;;;3.67;1.50;;;;;;;;;;5065832;28;20044;-91
2023/06/27 01:46:55;;;;;;;1.52;1.42;;;;;;;;;;5076444;28;20561;-91
2023/06/27 01:49:22;;;;;;;2.72;1.55;;;;;;;;;;5074504;28;20099;-91
2023/06/27 01:51:47;;;;;;;4.38;1.60;;;;;;;;;;5075335;28;20063;-90
2023/06/27 01:54:12;;;;;;;5.68;1.70;;;;;;;;;;5066498;28;20025;-91
2023/06/27 01:56:38;;;;;;;3.30;1.70;;;;;;;;;;5055994;28;20032;-90
2023/06/27 01:59:03;;;;;;;2.75;1.67;;;;;;;;;;5054471;28;20029;-90
2023/06/27 02:01:28;;;;;;;4.60;1.70;;;;;;;;;;5054438;28;20082;-90
2023/06/27 02:03:54;;;;;;;4.07;1.92;;;;;;;;;;5054120;28;20040;-91
2023/06/27 02:06:19;;;;;;;2.33;1.73;;;;;;;;;;5062175;28;20040;-90
2023/06/27 02:08:45;;;;;;;6.03;2.10;;;;;;;;;;5056804;28;20017;-90
2023/06/27 02:11:11;;;;;;;4.50;1.50;;;;;;;;;;5055106;28;20041;-90
2023/06/27 02:13:37;;;;;;;7.00;2.13;;;;;;;;;;5069132;28;20047;-92
2023/06/27 02:16:03;;;;;;;6.78;1.55;;;;;;;;;;5059674;28;20045;-91
2023/06/27 02:18:29;;;;;;;6.63;1.85;;;;;;;;;;5055101;28;20041;-91
2023/06/27 02:20:55;;;;;;;4.15;1.83;;;;;;;;;;5055280;28;20163;-91
2023/06/27 02:23:21;;;;;;;4.30;1.60;;;;;;;;;;5054599;28;20040;-91
2023/06/27 02:25:46;;;;;;;4.72;1.63;;;;;;;;;;5054108;28;20040;-91
2023/06/27 02:28:11;;;;;;;6.47;1.90;;;;;;;;;;5054458;28;20060;-89
2023/06/27 02:30:37;;;;;;;5.80;1.95;;;;;;;;;;5054456;28;20108;-89
2023/06/27 02:33:02;;;;;;;3.45;1.85;;;;;;;;;;5056509;28;20029;-90
2023/06/27 02:35:28;;;;;;;7.53;1.77;;;;;;;;;;5054202;28;20522;-90
2023/06/27 02:37:53;;;;;;;5.65;1.90;;;;;;;;;;5054061;28;20029;-90
2023/06/27 02:40:18;;;;;;;7.72;1.77;;;;;;;;;;5055702;28;20506;-91
2023/06/27 02:42:44;;;;;;;5.95;2.08;;;;;;;;;;5054600;28;20391;-90
2023/06/27 02:45:10;;;;;;;2.88;1.75;;;;;;;;;;5054709;28;20031;-90
2023/06/27 02:47:35;;;;;;;10.25;1.80;;;;;;;;;;5054366;28;20053;-90
2023/06/27 02:50:00;;;;;;;3.65;2.03;;;;;;;;;;5055381;28;20033;-90
2023/06/27 02:52:26;;;;;;;3.67;1.98;;;;;;;;;;5055259;28;20530;-90
2023/06/27 02:54:52;;;;;;;4.90;1.50;;;;;;;;;;5054326;28;20492;-90
2023/06/27 02:57:17;;;;;;;5.50;1.48;;;;;;;;;;5053920;28;20027;-90
2023/06/27 02:59:43;;;;;;;3.22;1.60;;;;;;;;;;5053905;28;20383;-90
2023/06/27 03:02:08;;;;;;;5.97;1.80;;;;;;;;;;5053517;28;20469;-90
2023/06/27 03:04:33;;;;;;;6.10;1.63;;;;;;;;;;5054877;28;20039;-90
2023/06/27 03:06:59;;;;;;;2.92;1.65;;;;;;;;;;5053233;28;20090;-91
2023/06/27 03:09:24;;;;;;;4.35;1.63;;;;;;;;;;5053667;28;20079;-91
2023/06/27 03:11:49;;;;;;;3.75;1.75;;;;;;;;;;5054126;28;20025;-90
2023/06/27 03:14:18;;;;;;;8.32;2.33;;;;;;;;;;5053756;28;20044;-91
2023/06/27 03:16:44;;;;;;;7.70;1.90;;;;;;;;;;5054679;28;20039;-91
2023/06/27 03:19:09;;;;;;;2.53;1.80;;;;;;;;;;5053169;28;20215;-90
2023/06/27 03:21:35;;;;;;;5.72;1.77;;;;;;;;;;5054590;28;20033;-90
2023/06/27 03:24:00;;;;;;;6.75;2.20;;;;;;;;;;5054565;28;20020;-91
2023/06/27 03:26:27;;;;;;;3.03;1.70;;;;;;;;;;5053115;28;20092;-90
2023/06/27 03:28:54;;;;;;;9.73;1.85;;;;;;;;;;5058849;28;20039;-90
2023/06/27 03:31:19;;;;;;;2.38;1.48;;;;;;;;;;5073689;28;20041;-90
2023/06/27 03:33:46;;;;;;;10.93;2.10;;;;;;;;;;5073506;28;20025;-90
2023/06/27 03:36:11;;;;;;;5.78;1.70;;;;;;;;;;5080710;28;20047;-91
2023/06/27 03:38:37;;;;;;;5.68;1.77;;;;;;;;;;5090739;28;20032;-90
2023/06/27 03:41:02;;;;;;;6.03;2.00;;;;;;;;;;5089347;28;20044;-90
2023/06/27 03:43:27;;;;;;;9.80;2.05;;;;;;;;;;5093993;28;20047;-91
2023/06/27 03:45:53;;;;;;;12.85;2.22;;;;;;;;;;5087807;28;20045;-91
2023/06/27 03:48:18;;;;;;;5.32;1.67;;;;;;;;;;5086352;28;20047;-91
2023/06/27 03:50:43;;;;;;;3.15;1.73;;;;;;;;;;5077085;28;20033;-91
2023/06/27 03:53:09;;;;;;;5.10;1.80;;;;;;;;;;5074116;28;20440;-91
2023/06/27 03:55:34;;;;;;;3.95;1.77;;;;;;;;;;5074625;28;20455;-91
2023/06/27 03:58:01;;;;;;;3.78;1.83;;;;;;;;;;5075079;28;20032;-92
2023/06/27 04:00:26;;;;;;;8.35;1.95;;;;;;;;;;5062999;28;20052;-91
2023/06/27 04:02:51;;;;;;;4.00;1.98;;;;;;;;;;5053889;28;20111;-91
2023/06/27 04:05:17;;;;;;;3.22;1.60;;;;;;;;;;5052465;28;20447;-91
2023/06/27 04:07:42;;;;;;;10.00;2.45;;;;;;;;;;5057157;28;20467;-91
2023/06/27 04:10:08;;;;;;;2.78;1.70;;;;;;;;;;5058880;28;20108;-91
2023/06/27 04:12:33;;;;;;;5.68;1.83;;;;;;;;;;5052852;28;20037;-91
2023/06/27 04:14:59;;;;;;;2.58;1.70;;;;;;;;;;5053563;28;20474;-91
2023/06/27 04:17:24;;;;;;;7.30;1.73;;;;;;;;;;5052576;28;20041;-91
2023/06/27 04:19:50;;;;;;;5.00;2.15;;;;;;;;;;5052556;28;20652;-91
2023/06/27 04:22:15;;;;;;;9.50;1.83;;;;;;;;;;5052186;28;20037;-90
2023/06/27 04:24:50;;;;;;;5.38;1.60;;;;;;;;;;5052628;28;20116;-90
2023/06/27 04:27:15;;;;;;;4.30;1.67;;;;;;;;;;5053197;28;20107;-91
2023/06/27 04:29:41;;;;;;;4.72;1.85;;;;;;;;;;5052548;28;20383;-90
2023/06/27 04:32:07;;;;;;;5.95;2.30;;;;;;;;;;5051803;28;20037;-91
2023/06/27 04:34:35;;;;;;;8.55;1.95;;;;;;;;;;5050809;28;20044;-91
2023/06/27 04:37:01;;;;;;;8.30;1.80;;;;;;;;;;5057543;28;20523;-90
2023/06/27 04:39:27;;;;;;;5.40;1.77;;;;;;;;;;5070686;28;20112;-91
2023/06/27 04:41:52;;;;;;;5.07;1.88;;;;;;;;;;5071235;28;20028;-91
2023/06/27 04:44:19;;;;;;;4.65;2.00;;;;;;;;;;5070423;28;20033;-91
2023/06/27 04:46:44;;;;;;;3.85;2.10;;;;;;;;;;5070826;28;20086;-91
2023/06/27 04:49:10;;;;;;;12.90;2.50;;;;;;;;;;5074153;28;20032;-91
2023/06/27 04:51:35;;;;;;;12.70;2.38;;;;;;;;;;5074730;28;20035;-91
2023/06/27 04:54:01;;;;;;;4.38;2.15;;;;;;;;;;5075055;28;20025;-91
2023/06/27 04:56:27;;;;;;;3.00;1.95;;;;;;;;;;5055611;28;20544;-91
2023/06/27 04:58:52;;;;;;;21.63;2.40;;;;;;;;;;5054236;28;20032;-91
2023/06/27 05:01:18;;;;;;;4.85;2.03;;;;;;;;;;5054276;28;20033;-91
2023/06/27 05:03:43;;;;;;;4.43;2.00;;;;;;;;;;5058528;28;20077;-91
2023/06/27 05:06:09;;;;;;;5.10;2.08;;;;;;;;;;5074552;28;20028;-91
2023/06/27 05:08:36;;;;;;;5.75;1.98;;;;;;;;;;5058709;28;20131;-92
2023/06/27 05:11:02;;;;;;;6.20;2.00;;;;;;;;;;5073721;28;20025;-92
2023/06/27 05:13:27;;;;;;;6.63;2.28;;;;;;;;;;5075034;28;20512;-91
2023/06/27 05:15:56;;;;;;;6.85;2.13;;;;;;;;;;5074308;28;20166;-91
2023/06/27 05:18:27;;;;;;;3.88;1.90;;;;;;;;;;5074101;28;20020;-92
2023/06/27 05:20:54;;;;;;;2.67;1.80;;;;;;;;;;5074845;28;20509;-91
2023/06/27 05:23:22;;;;;;;4.85;1.90;;;;;;;;;;5073892;28;20037;-91
2023/06/27 05:25:49;;;;;;;5.15;1.80;;;;;;;;;;5060051;28;20060;-91
2023/06/27 05:28:14;;;;;;;7.03;2.53;;;;;;;;;;5054679;28;20633;-91
2023/06/27 05:30:43;;;;;;;9.07;1.73;;;;;;;;;;5054502;28;20043;-90
2023/06/27 05:33:08;;;;;;;4.15;1.73;;;;;;;;;;5053873;28;20648;-91
2023/06/27 05:35:39;;;;;;;8.95;2.13;;;;;;;;;;5054084;28;20028;-91
2023/06/27 05:38:12;;;;;;;6.50;2.35;;;;;;;;;;5054295;28;20513;-91
2023/06/27 05:40:40;;;;;;;7.07;2.13;;;;;;;;;;5054490;28;20067;-91
2023/06/27 05:43:11;;;;;;;4.45;2.58;;;;;;;;;;5065997;28;20278;-91
2023/06/27 05:45:36;;;;;;;4.57;2.03;;;;;;;;;;5054104;28;20044;-91
2023/06/27 05:48:02;;;;;;;4.43;1.98;;;;;;;;;;5054379;28;20032;-91
2023/06/27 05:50:28;;;;;;;5.07;2.10;;;;;;;;;;5054025;28;20045;-91
2023/06/27 05:52:53;;;;;;;5.15;1.92;;;;;;;;;;5053881;28;20661;-91
2023/06/27 05:55:19;;;;;;;10.65;2.45;;;;;;;;;;5053172;28;20041;-92
2023/06/27 05:57:44;;;;;;;2.42;1.80;;;;;;;;;;5053120;28;20025;-92
2023/06/27 06:00:11;;;;;;;4.50;2.00;;;;;;;;;;5053442;28;20057;-91
2023/06/27 06:02:42;;;;;;;4.57;1.98;;;;;;;;;;5054339;28;20033;-90
2023/06/27 06:05:09;;;;;;;3.30;2.05;;;;;;;;;;5054105;28;20121;-90
2023/06/27 06:07:34;;;;;;;4.97;2.10;;;;;;;;;;5054253;28;20060;-89
2023/06/27 06:10:00;;;;;;;2.55;1.60;;;;;;;;;;5054357;28;20637;-89
2023/06/27 06:12:25;;;;;;;7.72;2.47;;;;;;;;;;5054800;28;20025;-90
2023/06/27 06:14:50;;;;;;;3.17;1.98;;;;;;;;;;5067738;28;20009;-90
2023/06/27 06:17:16;;;;;;;4.60;2.22;;;;;;;;;;5079275;28;20017;-90
2023/06/27 06:19:41;;;;;;;4.22;2.45;;;;;;;;;;5079300;28;20044;-90
2023/06/27 06:22:06;;;;;;;5.35;1.90;;;;;;;;;;5085627;28;20023;-89
2023/06/27 06:24:32;;;;;;;3.92;2.15;;;;;;;;;;5098709;28;20037;-90
2023/06/27 06:26:57;;;;;;;4.63;2.30;;;;;;;;;;5099225;28;20024;-90
2023/06/27 06:29:23;;;;;;;5.10;1.77;;;;;;;;;;5080390;28;20107;-90
2023/06/27 06:31:49;;;;;;;6.93;2.38;;;;;;;;;;5059829;28;20033;-89
2023/06/27 06:34:14;;;;;;;4.18;2.10;;;;;;;;;;5068413;28;20494;-88
2023/06/27 06:36:40;;;;;;;6.57;2.10;;;;;;;;;;5061389;28;20044;-88
2023/06/27 06:39:05;;;;;;;3.72;1.85;;;;;;;;;;5055978;28;20028;-88
2023/06/27 06:41:30;;;;;;;4.10;1.80;;;;;;;;;;5060657;28;20039;-88
2023/06/27 06:43:56;;;;;;;5.38;1.80;;;;;;;;;;5060684;28;20033;-88
2023/06/27 06:46:21;;;;;;;5.47;1.98;;;;;;;;;;5060026;28;20499;-88
2023/06/27 06:48:46;;;;;;;2.67;1.90;;;;;;;;;;5057130;28;20116;-88
2023/06/27 06:51:40;;;;;;;5.05;2.10;;;;;;;;;;5068275;28;20016;-88
2023/06/27 06:54:14;;;;;;;7.72;2.10;;;;;;;;;;5037247;28;20033;-88
2023/06/27 06:56:40;;;;;;;8.63;2.70;;;;;;;;;;5054614;28;20065;-88
2023/06/27 06:59:06;;;;;;;6.78;2.20;;;;;;;;;;5058748;28;20112;-88
2023/06/27 07:02:31;;;;;;;6.43;2.20;;;;;;;;;;5056576;28;20048;-88
2023/06/27 07:04:57;;;;;;;4.07;1.80;;;;;;;;;;5037908;28;20500;-88
2023/06/27 07:07:23;;;;;;;7.95;2.05;;;;;;;;;;5051385;28;20041;-88
2023/06/27 07:09:48;;;;;;;5.10;2.00;;;;;;;;;;5065283;28;20037;-88
2023/06/27 07:12:17;;;;;;;4.93;1.95;;;;;;;;;;5061933;28;20136;-88
2023/06/27 07:14:42;;;;;;;4.57;2.13;;;;;;;;;;5058484;28;20024;-88
2023/06/27 07:17:08;;;;;;;7.07;2.42;;;;;;;;;;5059891;28;20156;-88
2023/06/27 07:19:33;;;;;;;9.73;2.30;;;;;;;;;;5055117;28;20507;-88
2023/06/27 07:21:58;;;;;;;11.43;2.35;;;;;;;;;;5055183;28;20037;-88
2023/06/27 07:24:25;;;;;;;5.65;1.90;;;;;;;;;;5056841;28;20043;-88
2023/06/27 07:26:51;;;;;;;3.50;1.90;;;;;;;;;;5061487;28;20024;-88
2023/06/27 07:29:17;;;;;;;5.72;2.22;;;;;;;;;;5057945;28;20503;-89
2023/06/27 07:31:42;;;;;;;6.13;2.40;;;;;;;;;;5056557;28;20126;-88
2023/06/27 07:34:08;;;;;;;5.43;2.03;;;;;;;;;;5056955;28;20084;-89
2023/06/27 07:36:33;;;;;;;8.25;3.05;;;;;;;;;;5054200;28;20087;-88
2023/06/27 07:38:58;;;;;;;2.83;1.92;;;;;;;;;;5050339;28;20195;-88
2023/06/27 07:41:25;;;;;;;7.55;2.20;;;;;;;;;;5060481;28;20040;-88
2023/06/27 07:43:50;;;;;;;4.85;2.17;;;;;;;;;;5056898;28;20043;-88
2023/06/27 07:46:16;;;;;;;6.32;2.03;;;;;;;;;;5058419;28;20033;-88
2023/06/27 07:48:41;;;;;;;4.78;2.60;;;;;;;;;;5062722;28;20078;-88
2023/06/27 07:51:06;;;;;;;5.45;2.33;;;;;;;;;;5054534;28;20398;-88
2023/06/27 07:53:31;;;;;;;7.57;2.17;;;;;;;;;;5059960;28;20058;-89
2023/06/27 07:55:57;;;;;;;10.10;2.13;;;;;;;;;;5053139;28;20491;-89
2023/06/27 07:58:22;;;;;;;3.72;2.25;;;;;;;;;;5051550;28;20037;-89
2023/06/27 08:00:48;;;;;;;4.68;2.13;;;;;;;;;;5050833;28;20496;-88
2023/06/27 08:03:13;;;;;;;5.18;2.13;;;;;;;;;;5058992;28;20023;-89
2023/06/27 08:05:46;;;;;;;7.90;2.55;;;;;;;;;;5061396;28;20037;-91
2023/06/27 08:08:11;;;;;;;5.00;2.03;;;;;;;;;;5050289;28;20541;-88
2023/06/27 15:41:33;;;;;;;5.65;2.15;;;;;;;;;;4943773;28;20518;-88
2023/06/27 15:43:59;;;;;;;6.47;2.22;;;;;;;;;;4957321;28;20067;-90
2023/06/27 15:46:24;;;;;;;13.45;2.50;;;;;;;;;;4935755;29;20028;-89
2023/06/27 15:48:49;;;;;;;5.30;2.40;;;;;;;;;;4938009;28;20077;-88
2023/06/27 15:51:15;;;;;;;2.55;1.92;;;;;;;;;;4943317;28;20056;-89
2023/06/27 15:53:40;;;;;;;5.40;2.10;;;;;;;;;;4953639;29;20091;-88
2023/06/27 15:56:06;;;;;;;6.47;2.33;;;;;;;;;;4930925;29;20031;-89
2023/06/27 15:58:31;;;;;;;4.13;1.90;;;;;;;;;;4938500;29;20067;-89
2023/06/27 16:00:57;;;;;;;3.22;1.90;;;;;;;;;;4951958;29;20089;-88
2023/06/27 16:03:23;;;;;;;6.82;2.22;;;;;;;;;;4944881;29;20048;-89
2023/06/27 16:05:48;;;;;;;4.07;1.98;;;;;;;;;;4932286;29;20035;-87
2023/06/27 16:08:15;;;;;;;3.75;2.22;;;;;;;;;;4934662;29;20901;-90
2023/06/27 16:10:41;;;;;;;5.28;2.25;;;;;;;;;;4925737;29;20052;-87
2023/06/27 16:13:06;;;;;;;2.67;1.77;;;;;;;;;;4929801;29;20057;-88
2023/06/27 16:15:32;;;;;;;4.07;2.10;;;;;;;;;;4957768;29;20058;-88
2023/06/27 16:17:57;;;;;;;3.10;2.03;;;;;;;;;;4955376;28;20023;-89
2023/06/27 16:20:24;;;;;;;2.80;1.80;;;;;;;;;;4938345;29;20028;-90
2023/06/27 16:22:50;;;;;;;4.38;2.03;;;;;;;;;;4953712;28;20043;-89
2023/06/27 16:25:15;;;;;;;16.85;3.53;;;;;;;;;;4949714;29;20039;-90
2023/06/27 16:27:40;;;;;;;2.90;2.10;;;;;;;;;;4946233;29;20469;-89
2023/06/27 16:30:07;;;;;;;2.80;2.10;;;;;;;;;;4948605;28;20023;-88
2023/06/27 16:32:37;;;;;;;4.50;2.10;;;;;;;;;;4950109;28;20027;-88
2023/06/27 16:35:19;;;;;;;2.97;2.10;;;;;;;;;;4945976;29;20538;-89
2023/06/27 16:37:50;;;;;;;3.58;2.10;;;;;;;;;;4946572;28;20023;-90
2023/06/27 16:40:16;;;;;;;4.63;2.13;;;;;;;;;;4948483;29;20043;-89
2023/06/27 16:42:41;;;;;;;6.13;1.95;;;;;;;;;;4952129;28;20035;-89
2023/06/27 16:45:08;;;;;;;7.45;2.22;;;;;;;;;;4953620;29;20031;-89
2023/06/27 16:47:33;;;;;;;8.68;2.47;;;;;;;;;;4952102;29;20067;-88
2023/06/27 16:49:59;;;;;;;2.83;2.10;;;;;;;;;;4956599;28;20032;-89
2023/06/27 16:52:24;;;;;;;4.85;2.42;;;;;;;;;;4953136;29;20047;-89
2023/06/27 16:54:50;;;;;;;5.70;2.30;;;;;;;;;;4945718;29;20056;-89
2023/06/27 16:57:15;;;;;;;6.25;2.40;;;;;;;;;;4961502;28;20086;-89
2023/06/27 16:59:40;;;;;;;5.38;2.13;;;;;;;;;;4958381;29;20619;-89
2023/06/27 17:02:06;;;;;;;4.82;2.42;;;;;;;;;;4961734;29;20104;-89
2023/06/27 17:04:31;;;;;;;5.40;2.40;;;;;;;;;;4964817;28;20111;-90
2023/06/27 17:06:57;;;;;;;5.95;2.60;;;;;;;;;;4972276;28;20066;-88
2023/06/27 17:09:22;;;;;;;3.97;2.40;;;;;;;;;;4982857;28;20183;-88
2023/06/27 17:11:48;;;;;;;4.47;2.22;;;;;;;;;;4967246;28;20023;-90
2023/06/27 17:14:14;;;;;;;4.50;1.92;;;;;;;;;;4951652;29;20031;-90
2023/06/27 17:16:39;;;;;;;6.57;2.50;;;;;;;;;;4954854;28;20031;-89
2023/06/27 17:19:05;;;;;;;6.45;2.30;;;;;;;;;;4962118;28;20055;-89
2023/06/27 17:21:30;;;;;;;7.63;2.10;;;;;;;;;;4968860;28;20039;-88
2023/06/27 17:23:56;;;;;;;5.68;2.28;;;;;;;;;;4949335;29;20027;-91
2023/06/27 17:26:24;;;;;;;4.30;2.38;;;;;;;;;;4954380;29;20039;-88
2023/06/27 17:28:50;;;;;;;5.18;2.05;;;;;;;;;;4957637;28;20555;-90
2023/06/27 17:31:15;;;;;;;4.43;2.58;;;;;;;;;;4957760;28;20047;-88
2023/06/27 17:33:41;;;;;;;5.22;2.58;;;;;;;;;;4968628;28;20059;-90
2023/06/27 17:36:06;;;;;;;7.50;2.60;;;;;;;;;;4969345;28;20031;-89
2023/06/27 17:38:35;;;;;;;4.85;2.30;;;;;;;;;;4969946;28;20131;-89
2023/06/27 17:41:01;;;;;;;6.35;2.45;;;;;;;;;;4948065;28;20056;-90
2023/06/27 17:43:29;;;;;;;8.77;2.33;;;;;;;;;;4948887;29;20043;-89
2023/06/27 17:45:58;;;;;;;6.30;2.70;;;;;;;;;;4950002;29;20115;-88
2023/06/27 17:48:23;;;;;;;9.88;2.40;;;;;;;;;;4958683;28;20470;-87
2023/06/27 17:50:49;;;;;;;5.15;2.50;;;;;;;;;;4958685;29;20055;-90
2023/06/27 17:53:17;;;;;;;9.23;2.50;;;;;;;;;;4948482;28;20036;-87
2023/06/27 17:55:43;;;;;;;5.60;2.58;;;;;;;;;;4960605;28;20028;-88
2023/06/27 17:58:08;;;;;;;6.43;2.60;;;;;;;;;;4993294;28;20062;-88
2023/06/27 18:00:37;;;;;;;5.47;2.35;;;;;;;;;;4980523;28;20038;-91
2023/06/27 18:03:19;;;;;;;3.60;2.10;;;;;;;;;;4973023;28;20019;-88
2023/06/27 18:06:09;;;;;;;5.43;2.35;;;;;;;;;;4972377;29;20035;-90
2023/06/27 18:08:38;;;;;;;8.32;2.60;;;;;;;;;;4967413;29;20061;-89
2023/06/27 18:11:03;;;;;;;4.80;2.15;;;;;;;;;;4968141;28;20051;-90
2023/06/27 18:13:29;;;;;;;2.58;2.22;;;;;;;;;;4959881;29;20126;-90
2023/06/27 18:16:01;;;;;;;6.55;2.10;;;;;;;;;;4973524;28;20031;-90
2023/06/27 18:18:28;;;;;;;5.65;2.28;;;;;;;;;;4946407;29;20118;-91
2023/06/27 18:20:54;;;;;;;2.17;2.03;;;;;;;;;;4959058;29;20051;-91
2023/06/27 18:23:25;;;;;;;8.30;2.17;;;;;;;;;;4965481;29;20075;-91
2023/06/27 18:25:51;;;;;;;3.33;1.85;;;;;;;;;;4963151;29;20409;-89
2023/06/27 18:28:16;;;;;;;4.40;2.17;;;;;;;;;;4926271;29;20123;-90
2023/06/27 18:30:42;;;;;;;5.35;2.28;;;;;;;;;;4932752;29;20066;-92
2023/06/27 18:33:24;;;;;;;10.82;2.55;;;;;;;;;;4936167;29;20070;-89
2023/06/27 18:36:45;;;;;;;6.30;2.58;;;;;;;;;;4930772;29;20075;-90
2023/06/27 18:40:02;;;;;;;4.68;2.10;;;;;;;;;;4906787;29;20095;-89
2023/06/27 18:43:37;;;;;;;5.45;2.15;;;;;;;;;;4863448;29;20037;-90
2023/06/27 18:56:39;;;;;;;6.75;2.58;;;;;;;;;;4814065;29;20095;-88
2023/06/27 18:59:14;;;;;;;4.45;2.50;;;;;;;;;;4812268;29;20050;-90
2023/06/27 19:01:40;;;;;;;10.57;2.60;;;;;;;;;;4815882;29;20205;-89
2023/06/27 19:04:06;;;;;;;5.97;2.50;;;;;;;;;;4925662;29;20104;-88
2023/06/27 19:06:32;;;;;;;4.43;2.60;;;;;;;;;;4927664;29;20055;-89
2023/06/27 19:08:58;;;;;;;12.90;2.58;;;;;;;;;;4922507;29;20055;-90
2023/06/27 19:11:24;;;;;;;3.25;2.30;;;;;;;;;;4942855;29;20368;-88
2023/06/27 19:13:49;;;;;;;8.68;2.60;;;;;;;;;;4924987;29;20040;-90
2023/06/27 19:16:19;;;;;;;3.95;2.55;;;;;;;;;;4932395;29;20067;-89
2023/06/27 19:18:44;;;;;;;9.65;2.75;;;;;;;;;;4934462;29;20092;-91
2023/06/27 19:21:14;;;;;;;6.13;2.92;;;;;;;;;;4932226;29;20111;-89
2023/06/27 19:23:40;;;;;;;7.32;2.53;;;;;;;;;;4939614;29;20024;-90
2023/06/27 19:26:07;;;;;;;6.18;2.47;;;;;;;;;;4957711;29;20685;-90
2023/06/27 19:28:32;;;;;;;3.55;2.40;;;;;;;;;;4925738;29;20033;-90
2023/06/27 19:30:58;;;;;;;3.38;2.83;;;;;;;;;;4926907;29;20099;-89
2023/06/27 19:33:23;;;;;;;3.20;2.30;;;;;;;;;;4931009;29;20110;-89
2023/06/27 19:35:49;;;;;;;3.58;2.58;;;;;;;;;;4935051;29;20023;-90
2023/06/27 19:38:14;;;;;;;9.10;2.90;;;;;;;;;;4950978;29;20043;-89
2023/06/27 19:40:40;;;;;;;5.45;2.75;;;;;;;;;;4936504;29;20028;-88
2023/06/27 19:43:05;;;;;;;9.30;2.45;;;;;;;;;;4935077;29;20092;-90
2023/06/27 19:45:36;;;;;;;5.85;2.20;;;;;;;;;;4924803;29;20028;-89
2023/06/27 19:48:01;;;;;;;6.00;2.40;;;;;;;;;;4934169;29;20131;-91
2023/06/27 19:50:27;;;;;;;5.00;2.00;;;;;;;;;;4931563;29;20053;-89
2023/06/27 19:52:52;;;;;;;2.55;2.35;;;;;;;;;;4917135;29;20063;-91
2023/06/27 19:55:18;;;;;;;4.53;2.20;;;;;;;;;;4929062;29;20478;-90
2023/06/27 19:57:43;;;;;;;8.60;2.35;;;;;;;;;;4930249;29;20027;-89
2023/06/27 20:00:09;;;;;;;4.00;2.58;;;;;;;;;;4926726;29;20092;-90
2023/06/27 20:02:35;;;;;;;6.18;2.47;;;;;;;;;;4910248;29;20038;-90
2023/06/27 20:05:00;;;;;;;5.65;2.50;;;;;;;;;;4936282;29;20126;-89
2023/06/27 20:07:26;;;;;;;4.50;2.35;;;;;;;;;;4929195;29;20058;-89
2023/06/27 20:09:51;;;;;;;4.20;2.53;;;;;;;;;;4928930;29;20044;-88
2023/06/27 20:12:17;;;;;;;15.05;2.35;;;;;;;;;;4916098;29;20083;-89
2023/06/27 20:14:43;;;;;;;7.50;2.45;;;;;;;;;;4944119;29;20043;-90
2023/06/27 20:17:09;;;;;;;2.08;1.88;;;;;;;;;;4929994;29;20032;-90
2023/06/27 20:19:34;;;;;;;2.40;2.20;;;;;;;;;;4931167;29;20032;-88
2023/06/27 20:22:01;;;;;;;4.10;2.22;;;;;;;;;;4930177;29;20072;-89
2023/06/27 20:24:27;;;;;;;5.55;2.63;;;;;;;;;;4954533;29;20119;-89
2023/06/27 20:26:52;;;;;;;4.28;2.15;;;;;;;;;;4930747;29;20086;-89
2023/06/27 20:29:18;;;;;;;4.22;2.08;;;;;;;;;;4927533;29;20044;-89
2023/06/27 20:31:46;;;;;;;5.30;2.30;;;;;;;;;;4934838;29;20035;-89
2023/06/27 20:34:13;;;;;;;6.57;2.30;;;;;;;;;;4934391;29;20024;-90
2023/06/27 20:36:39;;;;;;;5.82;2.30;;;;;;;;;;4938541;29;20036;-89
2023/06/27 20:39:04;;;;;;;6.55;2.38;;;;;;;;;;4939305;29;20023;-89
2023/06/27 20:41:31;;;;;;;5.18;2.33;;;;;;;;;;4932325;29;20038;-88
2023/06/27 20:43:57;;;;;;;8.05;2.03;;;;;;;;;;4941133;29;20032;-89
2023/06/27 20:46:22;;;;;;;8.88;2.20;;;;;;;;;;4961200;29;20051;-88
2023/06/27 20:48:49;;;;;;;4.65;2.08;;;;;;;;;;4946264;29;20494;-89
2023/06/27 20:51:14;;;;;;;5.13;2.30;;;;;;;;;;4946703;28;20024;-87
2023/06/27 20:53:40;;;;;;;3.63;2.15;;;;;;;;;;4946797;28;20104;-89
2023/06/27 20:56:05;;;;;;;7.15;2.70;;;;;;;;;;4937330;29;20477;-88
2023/06/27 20:58:31;;;;;;;5.90;2.30;;;;;;;;;;4950448;29;20047;-89
2023/06/27 21:00:56;;;;;;;7.28;2.10;;;;;;;;;;4945530;29;20040;-88
2023/06/27 21:03:22;;;;;;;4.68;2.08;;;;;;;;;;4962402;29;20114;-88
2023/06/27 21:05:49;;;;;;;2.70;2.13;;;;;;;;;;4929578;29;20024;-88
2023/06/27 21:08:15;;;;;;;3.40;2.17;;;;;;;;;;4930482;29;20036;-88
2023/06/27 21:10:40;;;;;;;4.22;2.28;;;;;;;;;;4935518;29;20477;-88
2023/06/27 21:13:06;;;;;;;3.90;2.60;;;;;;;;;;4929136;29;20035;-90
2023/06/27 21:15:31;;;;;;;12.18;2.50;;;;;;;;;;4921594;29;20462;-89
2023/06/27 21:17:57;;;;;;;4.20;2.42;;;;;;;;;;4922897;29;20052;-87
2023/06/27 21:20:22;;;;;;;4.30;2.28;;;;;;;;;;4928256;29;20028;-89
2023/06/27 21:22:48;;;;;;;5.47;2.50;;;;;;;;;;4914902;29;20108;-89
2023/06/27 21:25:13;;;;;;;2.60;2.38;;;;;;;;;;4918597;29;20032;-88
2023/06/27 21:27:39;;;;;;;4.10;2.03;;;;;;;;;;4935647;29;20039;-89
2023/06/27 21:30:05;;;;;;;5.50;2.38;;;;;;;;;;4933740;29;20024;-88
2023/06/27 21:32:31;;;;;;;6.25;2.60;;;;;;;;;;4913833;29;20364;-89
2023/06/27 21:34:57;;;;;;;4.00;2.63;;;;;;;;;;4933841;29;20142;-88
2023/06/27 21:37:22;;;;;;;4.28;2.35;;;;;;;;;;4941655;29;20040;-88
2023/06/27 21:39:47;;;;;;;6.05;2.40;;;;;;;;;;4933945;29;20051;-88
2023/06/27 21:42:13;;;;;;;4.20;2.42;;;;;;;;;;4937781;29;20024;-89
2023/06/27 21:44:39;;;;;;;2.83;2.40;;;;;;;;;;4938580;29;20038;-89
2023/06/27 21:47:04;;;;;;;6.18;2.90;;;;;;;;;;4950608;29;20136;-90
2023/06/27 21:49:30;;;;;;;2.47;2.28;;;;;;;;;;4937909;29;20064;-87
2023/06/27 21:51:55;;;;;;;3.50;2.25;;;;;;;;;;4945499;29;20087;-89
2023/06/27 21:54:21;;;;;;;5.28;2.40;;;;;;;;;;4942041;29;20039;-91
2023/06/27 21:56:46;;;;;;;3.65;2.33;;;;;;;;;;4936681;29;20561;-89
2023/06/27 21:59:12;;;;;;;5.28;2.80;;;;;;;;;;4938239;29;20036;-89
2023/06/27 22:01:37;;;;;;;6.95;2.83;;;;;;;;;;4930211;29;20044;-89
2023/06/27 22:04:03;;;;;;;4.22;2.63;;;;;;;;;;4935018;29;20378;-88
2023/06/27 22:06:28;;;;;;;6.65;2.47;;;;;;;;;;4933849;29;20414;-88
2023/06/27 22:08:54;;;;;;;5.55;3.05;;;;;;;;;;4932569;29;20099;-89
2023/06/27 22:11:19;;;;;;;2.50;2.30;;;;;;;;;;4935821;29;20116;-89
2023/06/27 22:13:46;;;;;;;5.88;2.40;;;;;;;;;;4920520;29;20088;-90
2023/06/27 22:16:11;;;;;;;3.92;2.13;;;;;;;;;;4930044;29;20035;-89
2023/06/27 22:18:37;;;;;;;4.95;2.67;;;;;;;;;;4939998;29;20075;-89
2023/06/27 22:21:02;;;;;;;2.80;2.35;;;;;;;;;;4940198;29;20027;-89
2023/06/27 22:23:28;;;;;;;4.28;2.40;;;;;;;;;;4926894;29;20099;-88